createdAt,value
2019-01-26T00:00:11.740Z,4.79
2019-01-26T00:01:11.612Z,4.79
2019-01-26T00:02:11.640Z,4.70
2019-01-26T00:03:11.545Z,4.76
2019-01-26T00:04:11.512Z,4.75
2019-01-26T00:05:11.473Z,4.76
2019-01-26T00:06:11.563Z,4.80
2019-01-26T00:07:11.423Z,4.84
2019-01-26T00:08:11.484Z,4.75
2019-01-26T00:09:11.365Z,4.83
2019-01-26T00:10:11.322Z,4.80
2019-01-26T00:11:11.396Z,4.80
2019-01-26T00:12:11.263Z,4.88
2019-01-26T00:13:11.302Z,4.89
2019-01-26T00:14:11.203Z,4.89
2019-01-26T00:15:11.176Z,4.89
2019-01-26T00:16:11.146Z,4.88
2019-01-26T00:17:11.227Z,4.84
2019-01-26T00:18:11.080Z,4.91
2019-01-26T00:19:11.132Z,4.88
2019-01-26T00:20:11.013Z,4.89
2019-01-26T00:21:10.982Z,4.94
2019-01-26T00:22:11.051Z,4.89
2019-01-26T00:23:10.923Z,4.86
2019-01-26T00:24:10.972Z,4.84
2019-01-26T00:25:10.860Z,4.89
2019-01-26T00:26:10.832Z,4.89
2019-01-26T00:27:10.796Z,4.95
2019-01-26T00:28:10.883Z,4.96
2019-01-26T00:29:10.742Z,5.01
2019-01-26T00:30:10.797Z,5.02
2019-01-26T00:31:10.674Z,4.99
2019-01-26T00:32:10.661Z,4.92
2019-01-26T00:33:10.717Z,5.05
2019-01-26T00:34:10.582Z,5.07
2019-01-26T00:35:10.626Z,5.02
2019-01-26T00:36:10.521Z,5.05
2019-01-26T00:37:10.492Z,5.05
2019-01-26T00:38:10.460Z,5.17
2019-01-26T00:39:10.540Z,4.96
2019-01-26T00:40:10.401Z,5.05
2019-01-26T00:41:10.462Z,5.12
2019-01-26T00:42:10.342Z,5.02
2019-01-26T00:43:10.310Z,4.98
2019-01-26T00:44:10.294Z,5.02
2019-01-26T00:45:10.300Z,5.01
2019-01-26T00:46:10.212Z,5.20
2019-01-26T00:47:10.293Z,5.01
2019-01-26T00:48:10.156Z,5.04
2019-01-26T00:49:10.194Z,5.17
2019-01-26T00:50:10.091Z,4.99
2019-01-26T00:51:10.112Z,5.17
2019-01-26T00:52:10.042Z,4.99
2019-01-26T00:53:10.112Z,5.05
2019-01-26T00:54:10.023Z,5.07
2019-01-26T00:55:09.942Z,5.05
2019-01-26T00:56:09.956Z,5.07
2019-01-26T00:57:09.886Z,5.19
2019-01-26T00:58:09.940Z,5.17
2019-01-26T00:59:09.882Z,5.13
2019-01-26T01:00:09.793Z,5.19
2019-01-26T01:01:09.861Z,5.01
2019-01-26T01:02:09.723Z,5.14
2019-01-26T01:03:09.774Z,5.16
2019-01-26T01:04:09.674Z,5.16
2019-01-26T01:05:09.635Z,5.14
2019-01-26T01:06:09.602Z,5.16
2019-01-26T01:07:09.602Z,5.19
2019-01-26T01:08:09.542Z,5.14
2019-01-26T01:09:09.602Z,5.16
2019-01-26T01:10:09.482Z,5.14
2019-01-26T01:11:09.453Z,5.16
2019-01-26T01:12:09.434Z,5.17
2019-01-26T01:13:09.420Z,5.19
2019-01-26T01:14:09.368Z,5.22
2019-01-26T01:15:09.443Z,5.19
2019-01-26T01:16:09.315Z,5.19
2019-01-26T01:17:09.350Z,5.10
2019-01-26T01:18:09.244Z,5.17
2019-01-26T01:19:09.261Z,5.25
2019-01-26T01:20:09.201Z,5.25
2019-01-26T01:21:09.182Z,5.23
2019-01-26T01:22:09.125Z,5.30
2019-01-26T01:23:09.182Z,5.28
2019-01-26T01:24:09.065Z,5.31
2019-01-26T01:25:09.092Z,5.35
2019-01-26T01:26:09.989Z,5.35
2019-01-26T01:27:09.001Z,5.35
2019-01-26T01:28:08.942Z,5.37
2019-01-26T01:29:09.015Z,5.31
2019-01-26T01:30:08.871Z,5.38
2019-01-26T01:31:08.934Z,5.31
2019-01-26T01:32:08.823Z,5.46
2019-01-26T01:33:08.784Z,5.35
2019-01-26T01:34:08.764Z,5.37
2019-01-26T01:35:08.741Z,5.34
2019-01-26T01:36:08.691Z,5.32
2019-01-26T01:37:08.751Z,5.38
2019-01-26T01:38:08.631Z,5.37
2019-01-26T01:39:08.600Z,5.35
2019-01-26T01:40:08.670Z,5.32
2019-01-26T01:41:08.541Z,5.40
2019-01-26T01:42:08.591Z,5.43
2019-01-26T01:43:08.482Z,5.40
2019-01-26T01:44:08.453Z,5.37
2019-01-26T01:45:08.434Z,5.43
2019-01-26T01:46:08.511Z,5.35
2019-01-26T01:47:08.361Z,5.45
2019-01-26T01:48:08.410Z,5.40
2019-01-26T01:49:08.315Z,5.45
2019-01-26T01:50:08.274Z,5.45
2019-01-26T01:51:08.332Z,5.37
2019-01-26T01:52:08.214Z,5.43
2019-01-26T01:53:08.240Z,5.40
2019-01-26T01:54:08.164Z,5.40
2019-01-26T01:55:08.122Z,5.41
2019-01-26T01:56:08.090Z,5.50
2019-01-26T01:57:08.173Z,5.43
2019-01-26T01:58:08.031Z,5.49
2019-01-26T01:59:08.073Z,5.40
2019-01-26T02:00:07.974Z,5.49
2019-01-26T02:01:07.943Z,5.52
2019-01-26T02:02:07.990Z,5.45
2019-01-26T02:03:07.882Z,5.50
2019-01-26T02:04:07.900Z,5.48
2019-01-26T02:05:07.822Z,5.50
2019-01-26T02:06:07.781Z,5.49
2019-01-26T02:07:07.776Z,5.50
2019-01-26T02:08:07.826Z,5.52
2019-01-26T02:09:07.703Z,5.50
2019-01-26T02:10:07.735Z,5.49
2019-01-26T02:11:07.633Z,5.48
2019-01-26T02:12:07.600Z,5.48
2019-01-26T02:13:07.582Z,5.48
2019-01-26T02:14:07.654Z,5.49
2019-01-26T02:15:07.513Z,5.50
2019-01-26T02:16:07.563Z,5.43
2019-01-26T02:17:07.451Z,5.50
2019-01-26T02:18:07.433Z,5.56
2019-01-26T02:19:07.483Z,5.50
2019-01-26T02:20:07.362Z,5.50
2019-01-26T02:21:07.394Z,5.57
2019-01-26T02:22:07.303Z,5.59
2019-01-26T02:23:07.273Z,5.56
2019-01-26T02:24:07.242Z,5.55
2019-01-26T02:25:07.312Z,5.57
2019-01-26T02:26:07.182Z,5.66
2019-01-26T02:27:07.221Z,5.59
2019-01-26T02:28:07.124Z,5.60
2019-01-26T02:29:07.091Z,5.66
2019-01-26T02:30:07.141Z,5.66
2019-01-26T02:31:07.031Z,5.66
2019-01-26T02:32:07.052Z,5.59
2019-01-26T02:33:06.984Z,5.67
2019-01-26T02:34:06.942Z,5.64
2019-01-26T02:35:06.938Z,5.67
2019-01-26T02:36:06.972Z,5.60
2019-01-26T02:37:06.851Z,5.66
2019-01-26T02:38:06.892Z,5.60
2019-01-26T02:39:06.792Z,5.60
2019-01-26T02:40:06.764Z,5.67
2019-01-26T02:41:06.802Z,5.70
2019-01-26T02:42:06.716Z,5.74
2019-01-26T02:43:06.714Z,5.73
2019-01-26T02:44:06.639Z,5.75
2019-01-26T02:45:06.614Z,5.82
2019-01-26T02:46:06.583Z,5.68
2019-01-26T02:47:06.643Z,5.85
2019-01-26T02:48:06.522Z,5.78
2019-01-26T02:49:06.544Z,5.83
2019-01-26T02:50:06.460Z,5.75
2019-01-26T02:51:06.441Z,5.82
2019-01-26T02:52:06.408Z,5.82
2019-01-26T02:53:06.474Z,5.82
2019-01-26T02:54:06.352Z,5.78
2019-01-26T02:55:06.385Z,5.81
2019-01-26T02:56:06.290Z,5.83
2019-01-26T02:57:06.277Z,5.82
2019-01-26T02:58:06.300Z,5.83
2019-01-26T02:59:06.208Z,5.93
2019-01-26T03:00:06.204Z,5.83
2019-01-26T03:01:06.133Z,5.86
2019-01-26T03:02:06.114Z,5.85
2019-01-26T03:03:06.123Z,5.93
2019-01-26T03:04:06.053Z,5.92
2019-01-26T03:05:06.151Z,6.00
2019-01-26T03:06:05.995Z,5.95
2019-01-26T03:07:06.057Z,6.00
2019-01-26T03:08:05.937Z,6.01
2019-01-26T03:09:05.970Z,6.01
2019-01-26T03:10:05.868Z,5.98
2019-01-26T03:11:05.885Z,6.07
2019-01-26T03:12:05.805Z,5.98
2019-01-26T03:13:05.801Z,6.03
2019-01-26T03:14:05.782Z,6.04
2019-01-26T03:15:05.722Z,6.07
2019-01-26T03:16:05.809Z,6.04
2019-01-26T03:17:06.492Z,6.10
2019-01-26T03:18:05.726Z,6.09
2019-01-26T03:19:05.624Z,6.09
2019-01-26T03:20:05.630Z,6.13
2019-01-26T03:21:05.548Z,6.19
2019-01-26T03:22:05.538Z,6.14
2019-01-26T03:23:05.485Z,6.22
2019-01-26T03:24:05.466Z,6.26
2019-01-26T03:25:05.423Z,6.26
2019-01-26T03:26:05.480Z,6.30
2019-01-26T03:27:05.382Z,6.25
2019-01-26T03:28:05.399Z,6.32
2019-01-26T03:29:05.303Z,6.32
2019-01-26T03:30:05.299Z,6.29
2019-01-26T03:31:05.231Z,6.32
2019-01-26T03:32:05.307Z,6.36
2019-01-26T03:33:05.216Z,6.26
2019-01-26T03:34:05.192Z,6.32
2019-01-26T03:35:05.135Z,6.28
2019-01-26T03:36:05.217Z,6.36
2019-01-26T03:37:05.062Z,6.29
2019-01-26T03:38:05.122Z,6.32
2019-01-26T03:39:05.004Z,6.30
2019-01-26T03:40:05.058Z,6.33
2019-01-26T03:41:05.046Z,6.38
2019-01-26T03:42:04.930Z,6.32
2019-01-26T03:43:04.945Z,6.32
2019-01-26T03:44:04.856Z,6.36
2019-01-26T03:45:04.854Z,6.30
2019-01-26T03:46:04.791Z,6.32
2019-01-26T03:47:04.863Z,6.32
2019-01-26T03:48:04.736Z,6.29
2019-01-26T03:49:04.773Z,6.32
2019-01-26T03:50:04.672Z,6.28
2019-01-26T03:51:04.682Z,6.29
2019-01-26T03:52:04.692Z,6.28
2019-01-26T03:53:04.593Z,6.33
2019-01-26T03:54:04.601Z,6.36
2019-01-26T03:55:04.522Z,6.33
2019-01-26T03:56:04.612Z,6.33
2019-01-26T03:57:04.473Z,6.32
2019-01-26T03:58:04.443Z,6.32
2019-01-26T03:59:04.432Z,6.30
2019-01-26T04:00:04.385Z,6.33
2019-01-26T04:01:04.455Z,6.30
2019-01-26T04:02:04.322Z,6.30
2019-01-26T04:03:04.297Z,6.32
2019-01-26T04:04:04.262Z,6.32
2019-01-26T04:05:04.263Z,6.28
2019-01-26T04:06:04.206Z,6.36
2019-01-26T04:07:04.271Z,6.29
2019-01-26T04:08:04.144Z,6.30
2019-01-26T04:09:04.113Z,6.32
2019-01-26T04:10:04.193Z,6.26
2019-01-26T04:11:04.052Z,6.35
2019-01-26T04:12:04.103Z,6.32
2019-01-26T04:13:04.004Z,6.26
2019-01-26T04:14:03.961Z,6.28
2019-01-26T04:15:03.932Z,6.30
2019-01-26T04:16:04.026Z,6.29
2019-01-26T04:17:03.872Z,6.32
2019-01-26T04:18:03.934Z,6.29
2019-01-26T04:19:03.818Z,6.32
2019-01-26T04:20:03.792Z,6.35
2019-01-26T04:21:03.855Z,6.36
2019-01-26T04:22:03.722Z,6.38
2019-01-26T04:23:03.763Z,6.44
2019-01-26T04:24:03.663Z,6.38
2019-01-26T04:25:03.656Z,6.44
2019-01-26T04:26:03.617Z,6.43
2019-01-26T04:27:03.685Z,6.41
2019-01-26T04:28:03.553Z,6.43
2019-01-26T04:29:03.592Z,6.38
2019-01-26T04:30:03.492Z,6.48
2019-01-26T04:31:03.465Z,6.44
2019-01-26T04:32:03.442Z,6.50
2019-01-26T04:33:03.521Z,6.41
2019-01-26T04:34:03.373Z,6.54
2019-01-26T04:35:03.424Z,6.51
2019-01-26T04:36:03.313Z,6.48
2019-01-26T04:37:03.343Z,6.50
2019-01-26T04:38:03.254Z,6.46
2019-01-26T04:39:03.241Z,6.51
2019-01-26T04:40:03.210Z,6.48
2019-01-26T04:41:03.266Z,6.44
2019-01-26T04:42:03.166Z,6.47
2019-01-26T04:43:03.118Z,6.48
2019-01-26T04:44:03.172Z,6.44
2019-01-26T04:45:03.058Z,6.47
2019-01-26T04:46:03.082Z,6.51
2019-01-26T04:47:03.011Z,6.61
2019-01-26T04:48:02.968Z,6.56
2019-01-26T04:49:03.002Z,6.56
2019-01-26T04:50:02.903Z,6.53
2019-01-26T04:51:02.915Z,6.59
2019-01-26T04:52:02.842Z,6.59
2019-01-26T04:53:02.814Z,6.62
2019-01-26T04:54:02.793Z,6.59
2019-01-26T04:55:02.837Z,6.59
2019-01-26T04:56:02.736Z,6.59
2019-01-26T04:57:02.745Z,6.58
2019-01-26T04:58:02.676Z,6.59
2019-01-26T04:59:02.632Z,6.62
2019-01-26T05:00:02.665Z,6.63
2019-01-26T05:01:02.596Z,6.69
2019-01-26T05:02:02.575Z,6.62
2019-01-26T05:03:02.526Z,6.72
2019-01-26T05:04:02.492Z,6.68
2019-01-26T05:05:02.460Z,6.68
2019-01-26T05:06:02.494Z,6.66
2019-01-26T05:07:02.406Z,6.76
2019-01-26T05:08:02.407Z,6.77
2019-01-26T05:09:02.342Z,6.63
2019-01-26T05:10:02.315Z,6.69
2019-01-26T05:11:02.323Z,6.69
2019-01-26T05:12:02.263Z,6.68
2019-01-26T05:13:02.337Z,6.66
2019-01-26T05:14:02.202Z,6.69
2019-01-26T05:15:02.243Z,6.65
2019-01-26T05:16:02.144Z,6.65
2019-01-26T05:17:02.153Z,6.68
2019-01-26T05:18:02.082Z,6.63
2019-01-26T05:19:02.062Z,6.68
2019-01-26T05:20:02.024Z,6.68
2019-01-26T05:21:01.996Z,6.76
2019-01-26T05:22:01.982Z,6.73
2019-01-26T05:23:01.932Z,6.73
2019-01-26T05:24:01.996Z,6.76
2019-01-26T05:25:01.872Z,6.76
2019-01-26T05:26:01.903Z,6.73
2019-01-26T05:27:01.825Z,6.72
2019-01-26T05:28:01.812Z,6.71
2019-01-26T05:29:01.763Z,6.66
2019-01-26T05:30:01.826Z,6.71
2019-01-26T05:31:01.702Z,6.71
2019-01-26T05:32:01.672Z,6.65
2019-01-26T05:33:01.642Z,6.76
2019-01-26T05:34:01.652Z,6.71
2019-01-26T05:35:01.613Z,6.65
2019-01-26T05:36:01.663Z,6.69
2019-01-26T05:37:01.549Z,6.65
2019-01-26T05:38:01.495Z,6.68
2019-01-26T05:39:01.573Z,6.68
2019-01-26T05:40:01.443Z,6.65
2019-01-26T05:41:01.482Z,6.71
2019-01-26T05:42:01.387Z,6.68
2019-01-26T05:43:01.343Z,6.72
2019-01-26T05:44:01.327Z,6.66
2019-01-26T05:45:01.303Z,6.71
2019-01-26T05:46:01.275Z,6.72
2019-01-26T05:47:01.322Z,6.72
2019-01-26T05:48:01.218Z,6.72
2019-01-26T05:49:01.171Z,6.66
2019-01-26T05:50:01.144Z,6.69
2019-01-26T05:51:01.140Z,6.76
2019-01-26T05:52:01.081Z,6.77
2019-01-26T05:53:01.165Z,6.73
2019-01-26T05:54:01.035Z,6.79
2019-01-26T05:55:01.062Z,6.72
2019-01-26T05:56:00.961Z,6.73
2019-01-26T05:57:00.974Z,6.76
2019-01-26T05:58:00.918Z,6.73
2019-01-26T05:59:00.987Z,6.69
2019-01-26T06:00:00.853Z,6.76
2019-01-26T06:01:00.823Z,6.84
2019-01-26T06:02:00.904Z,6.73
2019-01-26T06:03:00.773Z,6.80
2019-01-26T06:04:00.813Z,6.71
2019-01-26T06:05:00.719Z,6.84
2019-01-26T06:06:00.731Z,6.90
2019-01-26T06:07:00.648Z,6.73
2019-01-26T06:08:00.731Z,6.73
2019-01-26T06:09:00.584Z,6.77
2019-01-26T06:10:00.655Z,6.72
2019-01-26T06:11:00.553Z,6.72
2019-01-26T06:12:00.510Z,6.86
2019-01-26T06:13:00.564Z,6.84
2019-01-26T06:14:00.442Z,6.83
2019-01-26T06:15:00.481Z,6.89
2019-01-26T06:16:00.381Z,6.87
2019-01-26T06:17:00.356Z,6.84
2019-01-26T06:18:00.394Z,6.86
2019-01-26T06:19:00.305Z,6.71
2019-01-26T06:20:00.292Z,6.76
2019-01-26T06:21:00.241Z,6.87
2019-01-26T06:22:00.212Z,6.84
2019-01-26T06:23:00.181Z,6.89
2019-01-26T06:24:00.222Z,6.86
2019-01-26T06:25:00.130Z,6.84
2019-01-26T06:26:00.146Z,6.87
2019-01-26T06:27:00.065Z,6.84
2019-01-26T06:28:00.041Z,6.79
2019-01-26T06:29:00.054Z,6.86
2019-01-26T06:29:59.976Z,6.86
2019-01-26T06:31:00.062Z,6.89
2019-01-26T06:31:59.921Z,6.86
2019-01-26T06:32:59.884Z,6.84
2019-01-26T06:33:59.864Z,6.80
2019-01-26T06:34:59.884Z,6.77
2019-01-26T06:35:59.803Z,6.84
2019-01-26T06:36:59.792Z,6.72
2019-01-26T06:37:59.741Z,6.84
2019-01-26T06:38:59.716Z,6.86
2019-01-26T06:39:59.703Z,6.89
2019-01-26T06:40:59.656Z,6.86
2019-01-26T06:41:59.724Z,6.80
2019-01-26T06:42:59.595Z,6.86
2019-01-26T06:43:59.632Z,6.84
2019-01-26T06:44:59.544Z,6.76
2019-01-26T06:45:59.542Z,6.84
2019-01-26T06:46:59.484Z,6.87
2019-01-26T06:48:02.304Z,6.83
2019-01-26T06:48:59.423Z,6.86
2019-01-26T06:49:59.395Z,6.86
2019-01-26T06:50:59.364Z,6.95
2019-01-26T06:51:59.372Z,6.84
2019-01-26T06:52:59.305Z,6.90
2019-01-26T06:53:59.382Z,6.83
2019-01-26T06:54:59.256Z,6.87
2019-01-26T06:55:59.293Z,6.89
2019-01-26T06:56:59.192Z,6.91
2019-01-26T06:57:59.201Z,6.91
2019-01-26T06:58:59.133Z,6.87
2019-01-26T06:59:59.126Z,6.84
2019-01-26T07:00:59.122Z,6.89
2019-01-26T07:01:59.044Z,6.84
2019-01-26T07:02:59.044Z,6.86
2019-01-26T07:03:58.993Z,6.89
2019-01-26T07:04:59.053Z,6.86
2019-01-26T07:05:58.926Z,6.84
2019-01-26T07:06:58.892Z,6.97
2019-01-26T07:07:58.965Z,6.90
2019-01-26T07:08:58.845Z,6.90
2019-01-26T07:09:58.872Z,6.84
2019-01-26T07:10:58.783Z,6.95
2019-01-26T07:11:58.760Z,6.84
2019-01-26T07:12:58.722Z,6.90
2019-01-26T07:13:58.792Z,6.94
2019-01-26T07:14:58.662Z,6.95
2019-01-26T07:15:58.711Z,6.98
2019-01-26T07:16:58.613Z,6.99
2019-01-26T07:17:58.575Z,6.91
2019-01-26T07:18:58.548Z,6.94
2019-01-26T07:19:58.635Z,6.94
2019-01-26T07:20:58.482Z,6.87
2019-01-26T07:21:58.549Z,6.89
2019-01-26T07:22:58.429Z,6.80
2019-01-26T07:23:58.457Z,6.86
2019-01-26T07:24:58.374Z,6.87
2019-01-26T07:25:58.364Z,6.84
2019-01-26T07:26:58.311Z,6.86
2019-01-26T07:27:58.392Z,6.97
2019-01-26T07:28:58.272Z,6.87
2019-01-26T07:29:58.233Z,6.91
2019-01-26T07:30:58.281Z,6.94
2019-01-26T07:31:58.162Z,6.89
2019-01-26T07:32:58.193Z,6.83
2019-01-26T07:33:58.114Z,6.87
2019-01-26T07:34:58.103Z,6.91
2019-01-26T07:35:58.053Z,6.87
2019-01-26T07:36:58.122Z,6.84
2019-01-26T07:37:57.992Z,6.84
2019-01-26T07:38:58.034Z,6.89
2019-01-26T07:39:57.932Z,6.89
2019-01-26T07:40:57.942Z,6.86
2019-01-26T07:41:57.872Z,6.87
2019-01-26T07:42:57.951Z,6.73
2019-01-26T07:43:57.813Z,6.84
2019-01-26T07:44:57.794Z,6.72
2019-01-26T07:45:57.766Z,6.72
2019-01-26T07:46:57.774Z,6.77
2019-01-26T07:47:57.702Z,6.76
2019-01-26T07:48:57.792Z,6.76
2019-01-26T07:49:57.650Z,6.76
2019-01-26T07:50:57.639Z,6.77
2019-01-26T07:51:57.711Z,6.76
2019-01-26T07:52:57.583Z,6.73
2019-01-26T07:53:57.628Z,6.77
2019-01-26T07:54:57.492Z,6.83
2019-01-26T07:55:57.473Z,6.73
2019-01-26T07:56:57.432Z,6.83
2019-01-26T07:57:57.432Z,6.73
2019-01-26T07:58:57.370Z,6.76
2019-01-26T07:59:57.443Z,6.76
2019-01-26T08:00:57.324Z,6.73
2019-01-26T08:01:57.352Z,6.72
2019-01-26T08:02:57.265Z,6.84
2019-01-26T08:03:57.262Z,6.73
2019-01-26T08:04:57.201Z,6.79
2019-01-26T08:05:57.271Z,6.81
2019-01-26T08:06:57.183Z,6.76
2019-01-26T08:07:57.112Z,6.71
2019-01-26T08:08:57.195Z,6.73
2019-01-26T08:09:57.053Z,6.72
2019-01-26T08:10:57.104Z,6.76
2019-01-26T08:11:56.989Z,6.81
2019-01-26T08:12:57.012Z,6.76
2019-01-26T08:13:56.942Z,6.71
2019-01-26T08:14:56.924Z,6.79
2019-01-26T08:15:56.885Z,6.83
2019-01-26T08:16:56.939Z,6.76
2019-01-26T08:17:56.822Z,6.80
2019-01-26T08:18:56.843Z,6.80
2019-01-26T08:19:56.769Z,6.72
2019-01-26T08:20:56.750Z,6.76
2019-01-26T08:21:56.702Z,6.71
2019-01-26T08:22:56.685Z,6.71
2019-01-26T08:23:56.656Z,6.76
2019-01-26T08:24:56.739Z,6.89
2019-01-26T08:25:56.582Z,6.73
2019-01-26T08:26:56.591Z,6.72
2019-01-26T08:27:56.528Z,6.71
2019-01-26T08:28:56.612Z,6.79
2019-01-26T08:29:56.474Z,6.86
2019-01-26T08:30:56.512Z,6.72
2019-01-26T08:31:56.424Z,6.73
2019-01-26T08:32:56.525Z,6.73
2019-01-26T08:33:56.434Z,6.87
2019-01-26T08:34:56.323Z,6.73
2019-01-26T08:35:56.354Z,6.79
2019-01-26T08:36:56.261Z,6.80
2019-01-26T08:37:56.258Z,6.77
2019-01-26T08:38:56.253Z,6.73
2019-01-26T08:39:56.182Z,6.73
2019-01-26T08:40:56.166Z,6.71
2019-01-26T08:41:56.112Z,6.90
2019-01-26T08:42:56.173Z,6.86
2019-01-26T08:43:56.061Z,6.84
2019-01-26T08:44:56.037Z,6.86
2019-01-26T08:45:56.095Z,6.86
2019-01-26T08:46:55.970Z,6.84
2019-01-26T08:47:56.004Z,6.86
2019-01-26T08:48:55.913Z,6.84
2019-01-26T08:49:55.892Z,6.89
2019-01-26T08:50:55.852Z,6.89
2019-01-26T08:51:55.921Z,6.83
2019-01-26T08:52:55.801Z,6.86
2019-01-26T08:53:55.831Z,6.90
2019-01-26T08:54:55.745Z,6.90
2019-01-26T08:55:55.752Z,6.84
2019-01-26T08:56:55.673Z,6.84
2019-01-26T08:57:55.761Z,6.87
2019-01-26T08:58:55.614Z,6.89
2019-01-26T08:59:55.674Z,6.91
2019-01-26T09:00:55.563Z,6.86
2019-01-26T09:01:55.539Z,6.90
2019-01-26T09:02:55.599Z,6.86
2019-01-26T09:03:55.477Z,6.84
2019-01-26T09:04:55.510Z,6.86
2019-01-26T09:05:55.413Z,6.86
2019-01-26T09:06:55.413Z,6.87
2019-01-26T09:07:55.352Z,6.91
2019-01-26T09:08:55.427Z,6.91
2019-01-26T09:09:55.293Z,6.89
2019-01-26T09:10:55.344Z,6.97
2019-01-26T09:11:55.233Z,6.97
2019-01-26T09:12:55.243Z,6.91
2019-01-26T09:13:55.176Z,6.91
2019-01-26T09:14:55.256Z,7.01
2019-01-26T09:15:55.112Z,6.99
2019-01-26T09:16:55.105Z,6.95
2019-01-26T09:17:55.053Z,6.91
2019-01-26T09:18:55.072Z,6.95
2019-01-26T09:19:55.002Z,6.97
2019-01-26T09:20:54.981Z,6.94
2019-01-26T09:21:54.947Z,6.95
2019-01-26T09:22:54.912Z,6.95
2019-01-26T09:23:54.902Z,6.98
2019-01-26T09:24:54.853Z,7.02
2019-01-26T09:25:54.915Z,7.04
2019-01-26T09:26:54.801Z,7.07
2019-01-26T09:27:54.775Z,7.04
2019-01-26T09:28:54.750Z,7.05
2019-01-26T09:29:54.732Z,7.08
2019-01-26T09:30:54.676Z,7.05
2019-01-26T09:31:54.742Z,7.07
2019-01-26T09:32:54.624Z,7.09
2019-01-26T09:33:54.665Z,7.04
2019-01-26T09:34:54.564Z,7.04
2019-01-26T09:35:54.562Z,7.02
2019-01-26T09:36:54.506Z,7.08
2019-01-26T09:37:54.601Z,7.17
2019-01-26T09:38:54.441Z,7.13
2019-01-26T09:39:54.494Z,7.15
2019-01-26T09:40:54.396Z,7.12
2019-01-26T09:41:54.404Z,7.12
2019-01-26T09:42:54.339Z,7.19
2019-01-26T09:43:54.301Z,7.15
2019-01-26T09:44:54.272Z,7.17
2019-01-26T09:45:54.323Z,7.16
2019-01-26T09:46:54.210Z,7.16
2019-01-26T09:47:54.230Z,7.19
2019-01-26T09:48:54.172Z,7.17
2019-01-26T09:49:54.133Z,7.23
2019-01-26T09:50:54.140Z,7.20
2019-01-26T09:51:54.075Z,7.24
2019-01-26T09:52:54.050Z,7.34
2019-01-26T09:53:54.012Z,7.23
2019-01-26T09:54:53.982Z,7.22
2019-01-26T09:55:53.955Z,7.27
2019-01-26T09:56:53.981Z,7.22
2019-01-26T09:57:53.899Z,7.22
2019-01-26T09:58:53.894Z,7.20
2019-01-26T09:59:53.830Z,7.27
2019-01-26T10:00:53.904Z,7.24
2019-01-26T10:01:53.772Z,7.23
2019-01-26T10:02:53.815Z,7.24
2019-01-26T10:03:53.734Z,7.23
2019-01-26T10:04:53.721Z,7.24
2019-01-26T10:05:53.742Z,7.27
2019-01-26T10:06:53.631Z,7.26
2019-01-26T10:07:53.644Z,7.27
2019-01-26T10:08:53.572Z,7.24
2019-01-26T10:09:53.674Z,7.19
2019-01-26T10:10:53.513Z,7.26
2019-01-26T10:11:53.565Z,7.26
2019-01-26T10:12:53.468Z,7.34
2019-01-26T10:13:53.473Z,7.38
2019-01-26T10:14:53.402Z,7.37
2019-01-26T10:15:53.496Z,7.35
2019-01-26T10:16:53.398Z,7.42
2019-01-26T10:17:53.409Z,7.38
2019-01-26T10:18:53.973Z,7.41
2019-01-26T10:19:53.306Z,7.35
2019-01-26T10:20:53.222Z,7.40
2019-01-26T10:21:53.203Z,7.44
2019-01-26T10:22:53.173Z,7.41
2019-01-26T10:23:53.236Z,7.45
2019-01-26T10:24:53.112Z,7.45
2019-01-26T10:25:53.145Z,7.41
2019-01-26T10:26:53.050Z,7.38
2019-01-26T10:27:53.022Z,7.41
2019-01-26T10:28:53.055Z,7.44
2019-01-26T10:29:52.975Z,7.50
2019-01-26T10:30:52.964Z,7.53
2019-01-26T10:31:52.916Z,7.55
2019-01-26T10:32:52.885Z,7.49
2019-01-26T10:33:52.853Z,7.53
2019-01-26T10:34:52.891Z,7.50
2019-01-26T10:35:52.795Z,7.55
2019-01-26T10:36:52.805Z,7.55
2019-01-26T10:37:52.732Z,7.66
2019-01-26T10:38:52.814Z,7.66
2019-01-26T10:39:52.673Z,7.67
2019-01-26T10:40:52.727Z,7.63
2019-01-26T10:41:52.625Z,7.72
2019-01-26T10:42:52.633Z,7.72
2019-01-26T10:43:52.634Z,7.72
2019-01-26T10:44:52.533Z,7.78
2019-01-26T10:45:52.558Z,7.85
2019-01-26T10:46:52.484Z,7.79
2019-01-26T10:47:52.563Z,7.87
2019-01-26T10:48:52.456Z,7.85
2019-01-26T10:49:52.475Z,7.90
2019-01-26T10:50:52.360Z,7.90
2019-01-26T10:51:52.390Z,7.87
2019-01-26T10:52:52.301Z,7.93
2019-01-26T10:53:52.295Z,7.89
2019-01-26T10:54:52.251Z,7.97
2019-01-26T10:55:52.302Z,8.00
2019-01-26T10:56:52.192Z,8.02
2019-01-26T10:57:52.227Z,8.03
2019-01-26T10:58:52.135Z,7.99
2019-01-26T10:59:52.102Z,8.12
2019-01-26T11:00:52.084Z,8.11
2019-01-26T11:01:52.140Z,8.04
2019-01-26T11:02:52.024Z,8.08
2019-01-26T11:03:52.053Z,8.11
2019-01-26T11:04:51.968Z,8.07
2019-01-26T11:05:51.935Z,8.07
2019-01-26T11:06:51.963Z,8.08
2019-01-26T11:07:51.884Z,8.10
2019-01-26T11:08:51.872Z,8.17
2019-01-26T11:09:51.823Z,8.11
2019-01-26T11:10:51.794Z,8.10
2019-01-26T11:11:51.775Z,8.10
2019-01-26T11:12:51.795Z,8.20
2019-01-26T11:13:51.729Z,8.14
2019-01-26T11:14:51.702Z,8.17
2019-01-26T11:15:51.651Z,8.10
2019-01-26T11:16:51.723Z,8.25
2019-01-26T11:17:51.605Z,8.15
2019-01-26T11:18:51.640Z,8.10
2019-01-26T11:19:51.544Z,8.15
2019-01-26T11:20:51.542Z,8.15
2019-01-26T11:21:51.485Z,8.20
2019-01-26T11:22:51.551Z,8.17
2019-01-26T11:23:51.423Z,8.26
2019-01-26T11:24:51.461Z,8.28
2019-01-26T11:25:51.381Z,8.30
2019-01-26T11:26:51.343Z,8.29
2019-01-26T11:27:51.318Z,8.26
2019-01-26T11:28:51.392Z,8.26
2019-01-26T11:29:51.255Z,8.28
2019-01-26T11:30:51.316Z,8.29
2019-01-26T11:31:51.206Z,8.33
2019-01-26T11:32:51.176Z,8.32
2019-01-26T11:33:51.213Z,8.26
2019-01-26T11:34:51.112Z,8.28
2019-01-26T11:35:51.123Z,8.33
2019-01-26T11:36:51.100Z,8.28
2019-01-26T11:37:51.040Z,8.35
2019-01-26T11:38:51.041Z,8.30
2019-01-26T11:39:50.986Z,8.29
2019-01-26T11:40:51.051Z,8.35
2019-01-26T11:41:50.923Z,8.37
2019-01-26T11:42:50.965Z,8.40
2019-01-26T11:43:50.861Z,8.51
2019-01-26T11:44:50.876Z,8.45
2019-01-26T11:45:50.807Z,8.50
2019-01-26T11:46:50.887Z,8.51
2019-01-26T11:47:50.763Z,8.37
2019-01-26T11:48:50.723Z,8.51
2019-01-26T11:49:50.816Z,8.53
2019-01-26T11:50:50.672Z,8.51
2019-01-26T11:51:50.713Z,8.55
2019-01-26T11:52:50.613Z,8.51
2019-01-26T11:53:50.583Z,8.58
2019-01-26T11:54:50.559Z,8.60
2019-01-26T11:55:50.644Z,8.63
2019-01-26T11:56:50.504Z,8.71
2019-01-26T11:57:50.553Z,8.81
2019-01-26T11:58:50.458Z,8.81
2019-01-26T11:59:50.421Z,9.28
2019-01-26T12:00:50.464Z,9.35
2019-01-26T12:01:50.372Z,9.38
2019-01-26T12:02:50.390Z,9.15
2019-01-26T12:03:50.303Z,9.15
2019-01-26T12:04:50.294Z,9.20
2019-01-26T12:05:50.253Z,9.16
2019-01-26T12:06:50.300Z,9.12
2019-01-26T12:07:50.206Z,9.27
2019-01-26T12:08:50.218Z,9.31
2019-01-26T12:09:50.142Z,9.28
2019-01-26T12:10:50.121Z,9.31
2019-01-26T12:11:50.123Z,9.31
2019-01-26T12:12:50.064Z,9.49
2019-01-26T12:13:50.134Z,9.57
2019-01-26T12:14:50.004Z,9.57
2019-01-26T12:15:49.985Z,9.50
2019-01-26T12:16:49.953Z,9.52
2019-01-26T12:17:49.952Z,9.35
2019-01-26T12:18:49.907Z,9.28
2019-01-26T12:19:49.962Z,9.30
2019-01-26T12:20:49.845Z,9.25
2019-01-26T12:21:49.877Z,9.25
2019-01-26T12:22:49.797Z,9.25
2019-01-26T12:23:49.783Z,9.18
2019-01-26T12:24:49.744Z,9.15
2019-01-26T12:25:49.802Z,9.30
2019-01-26T12:26:49.708Z,9.23
2019-01-26T12:27:49.663Z,9.09
2019-01-26T12:28:49.711Z,9.10
2019-01-26T12:29:49.624Z,9.16
2019-01-26T12:30:49.623Z,9.16
2019-01-26T12:31:49.664Z,9.05
2019-01-26T12:32:49.526Z,9.06
2019-01-26T12:33:49.543Z,9.13
2019-01-26T12:34:49.483Z,9.05
2019-01-26T12:35:49.555Z,9.05
2019-01-26T12:36:49.423Z,9.02
2019-01-26T12:37:49.392Z,9.06
2019-01-26T12:38:49.472Z,9.06
2019-01-26T12:39:49.333Z,8.96
2019-01-26T12:40:49.383Z,8.99
2019-01-26T12:41:49.284Z,9.02
2019-01-26T12:42:49.254Z,8.97
2019-01-26T12:43:49.341Z,9.04
2019-01-26T12:44:49.229Z,8.97
2019-01-26T12:45:49.214Z,9.02
2019-01-26T12:46:49.154Z,8.93
2019-01-26T12:47:49.222Z,8.91
2019-01-26T12:48:49.108Z,8.96
2019-01-26T12:49:49.143Z,8.94
2019-01-26T12:50:49.055Z,8.86
2019-01-26T12:51:49.041Z,8.83
2019-01-26T12:52:48.981Z,8.86
2019-01-26T12:53:48.963Z,8.88
2019-01-26T12:54:48.964Z,8.86
2019-01-26T12:55:48.909Z,8.79
2019-01-26T12:56:49.123Z,8.83
2019-01-26T12:57:48.853Z,8.79
2019-01-26T12:58:48.822Z,8.76
2019-01-26T12:59:48.794Z,8.71
2019-01-26T13:00:48.808Z,8.72
2019-01-26T13:01:48.746Z,8.71
2019-01-26T13:02:49.466Z,8.69
2019-01-26T13:03:48.687Z,8.69
2019-01-26T13:04:48.657Z,8.78
2019-01-26T13:05:48.712Z,8.84
2019-01-26T13:06:48.604Z,8.81
2019-01-26T13:07:48.623Z,8.78
2019-01-26T13:08:48.543Z,8.69
2019-01-26T13:09:48.523Z,8.81
2019-01-26T13:10:48.493Z,8.75
2019-01-26T13:11:48.566Z,8.84
2019-01-26T13:12:48.447Z,8.78
2019-01-26T13:13:48.463Z,8.79
2019-01-26T13:14:48.384Z,8.91
2019-01-26T13:15:48.355Z,8.83
2019-01-26T13:16:48.381Z,8.86
2019-01-26T13:17:48.304Z,8.87